Terminal Aerodrome Forecast
Issued by NWS

Home | Current Version | Previous Version | Text Only | Print | Product List | Glossary On
Versions: 1 2 3 4 5 6 7 8 9 10 11 12 13 14 15 16 17 18 19 20 21 22 23
202
FTUS43 KDLH 162012 AAA
TAFBRD
TAF AMD
KBRD 162012Z 1620/1718 27007KT P6SM VCTS BKN020CB
     FM162100 28005KT P6SM VCTS OVC020CB
     FM170300 28007KT P6SM BKN015
     FM171400 28009KT P6SM SCT020=

USA.gov is the U.S. government's official web portal to all federal, state and local government web resources and services.